Pine Ridge, SD

3:44 PM MST on February 21, 2017 (GMT -0700)
Pine Ridge | | Change Station
Active Advisory: Winter Storm Watch

Elev 3330 ft 43.02 °N, 102.51 °W | Updated 52 minutes ago

Clear
Clear
72 °F
Feels Like 72 °F
N
24
Wind Variable Wind from West
Gusts 45 mph

Today
High -- | Low -- °F
--% Chance of Precip.
Yesterday
High -- | Low -- °F
Precip. -- in
Pressure 29.72 in
Visibility 10.0 miles
Clouds Clear
Dew Point 27 °F
Humidity 19%
Rainfall 0.00 in
Snow Depth Not available.
6:38 AM 5:29 PM
Waning Crescent, 22% visible
METAR KIEN 212152Z AUTO 26021G39KT 10SM CLR 22/M03 A2974 RMK AO2 PK WND 27040/2139 SLP063 T02221028
Pressure 29.72 in
Visibility 10.0 miles
Clouds Clear
Dew Point 27 °F
Humidity 19%
Rainfall 0.00 in
Snow Depth Not available.
6:38 AM 5:29 PM
Waning Crescent, 22% visible
METAR KIEN 212152Z AUTO 26021G39KT 10SM CLR 22/M03 A2974 RMK AO2 PK WND 27040/2139 SLP063 T02221028

Get Your Daily Forecast Email!

Thanks for signing up!

Be on the lookout for a verification email in your inbox.

You'll start receiving the daily forecast at 8 AM.

×

10-Day Weather Forecast

Almanac

Astronomy

Feb. 21, 2017 Rise Set
Actual Time
Civil Twilight
Nautical Twilight
Astronomical Twilight
Moon
Length of Visible Light
Length of Day
Tomorrow will be .
, % of the Moon is Illuminated

Today's Extremes

State Highs State Lows

Community

WunderPhotos

Upload Photos

1,962,540 photos uploaded!

WunderBlog® & News

Nearby

Air Quality

  Air Quality AQ Index Pollutant
Not available.

Snow Depth

Station Depth Elevation

Earthquake Activity

City Distance Mag. Time & Date
Minimum magnitude displayed is 2.5.

Coastal Water Temperatures

Place Temperature

Stations

Nearby Weather Stations

Station Location Temp. Windchill Dew Point Humidity Wind Precip. Elev Updated Type
                   

Watches & Warnings

Winter Storm Watch
Issued: 2:46 PM MST Feb. 21, 2017 – National Weather Service

... Winter Storm Watch in effect from late Wednesday night through
Friday morning...

The National Weather Service in Rapid City has issued a Winter
Storm Watch, which is in effect from late Wednesday night through
Friday morning.

* Timing... snow will begin late Wednesday night and continue
through Thursday. Snow will end late Thursday night into Friday
morning.

* Main impact... snow amounts of 6 inches or more are possible.

* Other impacts... slippery and hazardous Road conditions will be
possible. Travel may be difficult at times.


Precautionary/preparedness actions...

A Winter Storm Watch means heavy snow... strong winds... freezing
precipitation... and cold temperatures are possible. Monitor NOAA
Weather Radio... local radio or television... or the internet for
updates on this potentially dangerous storm. Take time to prepare
for severe winter conditions before the storm develops.